BVA weather

Paris Beauvais Tillé Airport
Beauvais/Tillé, Picardie, France

Public forecast

Using degrees Celsius for public forecast. Weather courtesy of forecast.io.

METAR (pilot weather report)

Retrieved 2019/03/25 05:30 UTC (54 seconds ago):

LFOB 250530Z AUTO 29008KT CAVOK 02/02 Q1027 NOSIG

TAF (pilot weather forecast)

Forecast is more than 12 hours old.

Retrieved 2019/03/24 00:21 UTC (1 day ago):

TAF LFOB 242300Z 2500/2524 35007KT CAVOK TEMPO 2500/2506 4000 BR